Observation data for Fluvanna on 10/13/2019      Previous  Date       Current Mesonet Observations  Soil Data  Daily Summary Page  Observations in Plain Language
KFVS 130500Z 18012KT 12/M02 A30 RMK A01 T01231018  RH  038%=      5-min Rain = 0
KFVS 130505Z 18012KT 12/M02 A30 RMK A01 T01221017  RH  038%=      5-min Rain = 0
KFVS 130510Z 18013KT 12/M02 A30 RMK A01 T01211017  RH  039%=      5-min Rain = 0
KFVS 130515Z 18013KT 12/M02 A2999 RMK A01 T01211016  RH  039%=      5-min Rain = 0
KFVS 130520Z 18013KT 12/M02 A2999 RMK A01 T01221015  RH  039%=      5-min Rain = 0
KFVS 130525Z 19013KT 12/M02 A2999 RMK A01 T01221016  RH  039%=      5-min Rain = 0
KFVS 130530Z 19012KT 12/M02 A2999 RMK A01 T01221016  RH  039%=      5-min Rain = 0
KFVS 130535Z 20012KT 12/M02 A2999 RMK A01 T01221015  RH  039%=      5-min Rain = 0
KFVS 130540Z 20011KT 12/M02 A2999 RMK A01 T01211016  RH  039%=      5-min Rain = 0
KFVS 130545Z 20012KT 12/M02 A2999 RMK A01 T01191017  RH  039%=      5-min Rain = 0
KFVS 130550Z 20011KT 12/M02 A2999 RMK A01 T01181017  RH  039%=      5-min Rain = 0
KFVS 130555Z 20010KT 12/M02 A2999 RMK A01 T01171018  RH  039%=      5-min Rain = 0
KFVS 130600Z 21010KT 12/M02 A2999 RMK A01 T01151019  RH  040%=      5-min Rain = 0
KFVS 130605Z 20011KT 12/M02 A2999 RMK A01 T01161018  RH  040%=      5-min Rain = 0
KFVS 130610Z 20010KT 12/M02 A2999 RMK A01 T01161019  RH  039%=      5-min Rain = 0
KFVS 130615Z 21010KT 11/M02 A2999 RMK A01 T01141019  RH  040%=      5-min Rain = 0
KFVS 130620Z 21009KT 12/M02 A2999 RMK A01 T01151019  RH  040%=      5-min Rain = 0
KFVS 130625Z 21009KT 12/M02 A2999 RMK A01 T01161019  RH  039%=      5-min Rain = 0
KFVS 130630Z 21010KT 12/M02 A2999 RMK A01 T01161019  RH  039%=      5-min Rain = 0
KFVS 130635Z 21010KT 12/M02 A2999 RMK A01 T01161019  RH  039%=      5-min Rain = 0
KFVS 130640Z 21010KT 11/M02 A2999 RMK A01 T01141020  RH  040%=      5-min Rain = 0
KFVS 130645Z 21010KT 11/M02 A2999 RMK A01 T01131020  RH  040%=      5-min Rain = 0
KFVS 130650Z 21010KT 11/M02 A2999 RMK A01 T01131020  RH  040%=      5-min Rain = 0
KFVS 130655Z 21010KT 11/M02 A2999 RMK A01 T01131020  RH  040%=      5-min Rain = 0
KFVS 130700Z 21010KT 11/M02 A2999 RMK A01 T01131020  RH  040%=      5-min Rain = 0
KFVS 130705Z 21009KT 11/M02 A2999 RMK A01 T01121020  RH  040%=      5-min Rain = 0
KFVS 130710Z 21009KT 11/M02 A2999 RMK A01 T01131020  RH  040%=      5-min Rain = 0
KFVS 130715Z 21011KT 11/M02 A2999 RMK A01 T01131020  RH  040%=      5-min Rain = 0
KFVS 130720Z 21010KT 11/M02 A2999 RMK A01 T01141021  RH  039%=      5-min Rain = 0
KFVS 130725Z 21011KT 11/M02 A2999 RMK A01 T01141021  RH  039%=      5-min Rain = 0
KFVS 130730Z 20013KT 12/M02 A2998 RMK A01 T01211021  RH  038%=      5-min Rain = 0
KFVS 130735Z 20012KT 12/M02 A2998 RMK A01 T01221023  RH  037%=      5-min Rain = 0
KFVS 130740Z 20012KT 12/M02 A2998 RMK A01 T01191023  RH  038%=      5-min Rain = 0
KFVS 130745Z 20012KT 12/M02 A2998 RMK A01 T01161022  RH  038%=      5-min Rain = 0
KFVS 130750Z 20012KT 12/M02 A2997 RMK A01 T01161023  RH  038%=      5-min Rain = 0
KFVS 130755Z 20011KT 11/M02 A2997 RMK A01 T01141023  RH  039%=      5-min Rain = 0
KFVS 130800Z 20010KT 11/M02 A2997 RMK A01 T01121023  RH  039%=      5-min Rain = 0
KFVS 130805Z 20010KT 11/M02 A2997 RMK A01 T01101023  RH  040%=      5-min Rain = 0
KFVS 130810Z 21008KT 11/M02 A2998 RMK A01 T01081023  RH  040%=      5-min Rain = 0
KFVS 130815Z 21007KT 11/M02 A2998 RMK A01 T01081023  RH  040%=      5-min Rain = 0
KFVS 130820Z 21008KT 11/M02 A2998 RMK A01 T01081023  RH  040%=      5-min Rain = 0
KFVS 130825Z 20007KT 11/M02 A2998 RMK A01 T01061024  RH  041%=      5-min Rain = 0
KFVS 130830Z 20006KT 10/M02 A2998 RMK A01 T01041024  RH  041%=      5-min Rain = 0
KFVS 130835Z 20007KT 10/M03 A2998 RMK A01 T01021025  RH  041%=      5-min Rain = 0
KFVS 130840Z 20007KT 10/M03 A2998 RMK A01 T01001025  RH  042%=      5-min Rain = 0
KFVS 130845Z 21008KT 10/M03 A2998 RMK A01 T00991025  RH  042%=      5-min Rain = 0
KFVS 130850Z 21008KT 10/M03 A2997 RMK A01 T01011025  RH  041%=      5-min Rain = 0
KFVS 130855Z 21009KT 10/M03 A2997 RMK A01 T01031025  RH  041%=      5-min Rain = 0
KFVS 130900Z 21009KT 11/M03 A2997 RMK A01 T01061025  RH  040%=      5-min Rain = 0
KFVS 130905Z 21009KT 11/M03 A2997 RMK A01 T01071026  RH  040%=      5-min Rain = 0
KFVS 130910Z 21009KT 11/M03 A2997 RMK A01 T01071026  RH  040%=      5-min Rain = 0
KFVS 130915Z 22008KT 11/M03 A2997 RMK A01 T01061026  RH  040%=      5-min Rain = 0
KFVS 130920Z 22008KT 11/M03 A2996 RMK A01 T01051026  RH  040%=      5-min Rain = 0
KFVS 130925Z 22008KT 11/M03 A2996 RMK A01 T01051026  RH  040%=      5-min Rain = 0
KFVS 130930Z 22008KT 11/M03 A2996 RMK A01 T01061026  RH  040%=      5-min Rain = 0
KFVS 130935Z 22008KT 11/M03 A2996 RMK A01 T01051026  RH  040%=      5-min Rain = 0
KFVS 130940Z 21009KT 10/M03 A2996 RMK A01 T01031026  RH  041%=      5-min Rain = 0
KFVS 130945Z 22008KT 10/M03 A2996 RMK A01 T01021025  RH  041%=      5-min Rain = 0
KFVS 130950Z 22008KT 10/M03 A2996 RMK A01 T01031025  RH  041%=      5-min Rain = 0
KFVS 130955Z 22009KT 10/M03 A2996 RMK A01 T01031025  RH  041%=      5-min Rain = 0
KFVS 131000Z 22010KT 11/M03 A2996 RMK A01 T01051025  RH  040%=      5-min Rain = 0
KFVS 131005Z 22010KT 11/M03 A2996 RMK A01 T01051025  RH  040%=      5-min Rain = 0
KFVS 131010Z 22011KT 11/M03 A2996 RMK A01 T01061025  RH  040%=      5-min Rain = 0
KFVS 131015Z 22011KT 11/M03 A2996 RMK A01 T01051025  RH  040%=      5-min Rain = 0
KFVS 131020Z 22010KT 11/M03 A2996 RMK A01 T01051025  RH  041%=      5-min Rain = 0
KFVS 131025Z 21009KT 10/M03 A2996 RMK A01 T01041025  RH  041%=      5-min Rain = 0
KFVS 131030Z 21007KT 10/M03 A2996 RMK A01 T01031025  RH  041%=      5-min Rain = 0
KFVS 131035Z 21006KT 10/M02 A2996 RMK A01 T01031024  RH  041%=      5-min Rain = 0
KFVS 131040Z 20006KT 10/M02 A2996 RMK A01 T01021024  RH  041%=      5-min Rain = 0
KFVS 131045Z 21007KT 10/M02 A2997 RMK A01 T01031024  RH  041%=      5-min Rain = 0
KFVS 131050Z 21008KT 10/M02 A2996 RMK A01 T01031024  RH  041%=      5-min Rain = 0
KFVS 131055Z 21009KT 10/M02 A2996 RMK A01 T01031023  RH  042%=      5-min Rain = 0
KFVS 131100Z 21008KT 10/M02 A2997 RMK A01 T01041022  RH  041%=      5-min Rain = 0
KFVS 131105Z 21007KT 10/M02 A2997 RMK A01 T01031023  RH  042%=      5-min Rain = 0
KFVS 131110Z 21007KT 10/M02 A2997 RMK A01 T01011023  RH  042%=      5-min Rain = 0
KFVS 131115Z 21007KT 10/M02 A2997 RMK A01 T01001022  RH  043%=      5-min Rain = 0
KFVS 131120Z 21006KT 10/M02 A2997 RMK A01 T00991022  RH  043%=      5-min Rain = 0
KFVS 131125Z 20007KT 10/M02 A2997 RMK A01 T00961022  RH  044%=      5-min Rain = 0
KFVS 131130Z 19007KT 10/M02 A2997 RMK A01 T00971022  RH  044%=      5-min Rain = 0
KFVS 131135Z 19007KT 10/M02 A2997 RMK A01 T00951023  RH  044%=      5-min Rain = 0
KFVS 131140Z 19006KT 09/M02 A2997 RMK A01 T00911023  RH  045%=      5-min Rain = 0
KFVS 131145Z 19006KT 09/M02 A2997 RMK A01 T00921023  RH  045%=      5-min Rain = 0
KFVS 131150Z 19006KT 09/M02 A2997 RMK A01 T00911023  RH  045%=      5-min Rain = 0
KFVS 131155Z 19005KT 09/M02 A2997 RMK A01 T00911023  RH  045%=      5-min Rain = 0
KFVS 131200Z 19005KT 09/M02 A2998 RMK A01 T00911023  RH  045%=      5-min Rain = 0
KFVS 131205Z 19006KT 09/M02 A2998 RMK A01 T00891023  RH  046%=      5-min Rain = 0
KFVS 131210Z 19005KT 09/M02 A2998 RMK A01 T00861024  RH  046%=      5-min Rain = 0
KFVS 131215Z 19005KT 08/M02 A2999 RMK A01 T00811024  RH  048%=      5-min Rain = 0
KFVS 131220Z 19007KT 08/M02 A2999 RMK A01 T00801023  RH  048%=      5-min Rain = 0
KFVS 131225Z 19007KT 08/M02 A2999 RMK A01 T00781024  RH  049%=      5-min Rain = 0
KFVS 131230Z 19008KT 08/M02 A2999 RMK A01 T00791023  RH  049%=      5-min Rain = 0
KFVS 131235Z 19009KT 08/M02 A2999 RMK A01 T00821021  RH  049%=      5-min Rain = 0
KFVS 131240Z 20010KT 09/M02 A2998 RMK A01 T00851021  RH  048%=      5-min Rain = 0
KFVS 131245Z 20010KT 08/M02 A2998 RMK A01 T00841021  RH  048%=      5-min Rain = 0
KFVS 131250Z 20009KT 09/M02 A2998 RMK A01 T00851021  RH  047%=      5-min Rain = 0
KFVS 131255Z 19008KT 09/M02 A2998 RMK A01 T00861021  RH  047%=      5-min Rain = 0
KFVS 131300Z 20008KT 09/M02 A2999 RMK A01 T00881020  RH  047%=      5-min Rain = 0
KFVS 131305Z 20007KT 09/M02 A2999 RMK A01 T00891020  RH  047%=      5-min Rain = 0
KFVS 131310Z 20007KT 09/M02 A2999 RMK A01 T00891020  RH  047%=      5-min Rain = 0
KFVS 131315Z 20007KT 09/M02 A2999 RMK A01 T00891020  RH  047%=      5-min Rain = 0
KFVS 131320Z 20008KT 09/M02 A2999 RMK A01 T00911019  RH  046%=      5-min Rain = 0
KFVS 131325Z 21007KT 09/M02 A2999 RMK A01 T00931018  RH  046%=      5-min Rain = 0
KFVS 131330Z 21007KT 10/M02 A2999 RMK A01 T00951017  RH  046%=      5-min Rain = 0
KFVS 131335Z 21006KT 10/M02 A2999 RMK A01 T00991016  RH  045%=      5-min Rain = 0
KFVS 131340Z 21007KT 10/M02 A2999 RMK A01 T01031015  RH  044%=      5-min Rain = 0
KFVS 131345Z 21008KT 11/M02 A2999 RMK A01 T01061015  RH  043%=      5-min Rain = 0
KFVS 131350Z 21008KT 11/M02 A2999 RMK A01 T01091015  RH  043%=      5-min Rain = 0
KFVS 131355Z 21008KT 11/M02 A2999 RMK A01 T01111015  RH  042%=      5-min Rain = 0
KFVS 131400Z 21009KT 12/M01 A2999 RMK A01 T01151014  RH  041%=      5-min Rain = 0
KFVS 131405Z 21010KT 12/M02 A30 RMK A01 T01181015  RH  040%=      5-min Rain = 0
KFVS 131410Z 21010KT 12/M01 A30 RMK A01 T01221013  RH  040%=      5-min Rain = 0
KFVS 131415Z 21009KT 12/M01 A30 RMK A01 T01241013  RH  039%=      5-min Rain = 0
KFVS 131420Z 22009KT 13/M01 A3001 RMK A01 T01261012  RH  039%=      5-min Rain = 0
KFVS 131425Z 22010KT 13/M01 A3001 RMK A01 T01281012  RH  038%=      5-min Rain = 0
KFVS 131430Z 22010KT 13/M01 A3001 RMK A01 T01301011  RH  038%=      5-min Rain = 0
KFVS 131435Z 22010KT 13/M01 A3001 RMK A01 T01311010  RH  038%=      5-min Rain = 0
KFVS 131440Z 22012KT 13/M01 A3001 RMK A01 T01331008  RH  038%=      5-min Rain = 0
KFVS 131445Z 22013KT 14/M01 A30 RMK A01 T01361006  RH  038%=      5-min Rain = 0
KFVS 131450Z 22012KT 14/M00 A3001 RMK A01 T01421003  RH  037%=      5-min Rain = 0
KFVS 131455Z 22010KT 15/M00 A3001 RMK A01 T01481002  RH  036%=      5-min Rain = 0
KFVS 131500Z 22009KT 15/00 A3002 RMK A01 T014900-0  RH  036%=      5-min Rain = 0
KFVS 131505Z 22010KT 15/00 A3002 RMK A01 T01530001  RH  036%=      5-min Rain = 0
KFVS 131510Z 22011KT 15/00 A3002 RMK A01 T01510001  RH  036%=      5-min Rain = 0
KFVS 131515Z 22010KT 15/00 A3002 RMK A01 T01530002  RH  036%=      5-min Rain = 0
KFVS 131520Z 22010KT 16/00 A3001 RMK A01 T01570003  RH  035%=      5-min Rain = 0
KFVS 131525Z 21011KT 16/00 A3001 RMK A01 T01580004  RH  035%=      5-min Rain = 0
KFVS 131530Z 21009KT 16/01 A3001 RMK A01 T01610006  RH  035%=      5-min Rain = 0
KFVS 131535Z 20009KT 16/01 A3001 RMK A01 T01640005  RH  034%=      5-min Rain = 0
KFVS 131540Z 21009KT 17/01 A3001 RMK A01 T01670007  RH  034%=      5-min Rain = 0
KFVS 131545Z 21010KT 17/01 A3001 RMK A01 T01700007  RH  034%=      5-min Rain = 0
KFVS 131550Z 22009KT 17/01 A3002 RMK A01 T01730008  RH  033%=      5-min Rain = 0
KFVS 131555Z 21009KT 18/01 A3001 RMK A01 T01760008  RH  033%=      5-min Rain = 0
KFVS 131600Z 21010KT 18/01 A3002 RMK A01 T01770008  RH  033%=      5-min Rain = 0
KFVS 131605Z 21009KT 18/01 A3002 RMK A01 T01810010  RH  032%=      5-min Rain = 0
KFVS 131610Z 22010KT 18/01 A3002 RMK A01 T01840011  RH  032%=      5-min Rain = 0
KFVS 131615Z 22010KT 18/01 A3001 RMK A01 T01830010  RH  032%=      5-min Rain = 0
KFVS 131620Z 22009KT 18/01 A3001 RMK A01 T01840011  RH  032%=      5-min Rain = 0
KFVS 131625Z 22009KT 19/01 A3001 RMK A01 T01900013  RH  031%=      5-min Rain = 0
KFVS 131630Z 20009KT 19/01 A3001 RMK A01 T01920012  RH  031%=      5-min Rain = 0
KFVS 131635Z 20009KT 19/01 A3001 RMK A01 T01940013  RH  030%=      5-min Rain = 0
KFVS 131640Z 20010KT 20/01 A3001 RMK A01 T01960012  RH  030%=      5-min Rain = 0
KFVS 131645Z 20008KT 20/01 A3001 RMK A01 T02000014  RH  029%=      5-min Rain = 0
KFVS 131650Z 20008KT 20/02 A3001 RMK A01 T02030015  RH  029%=      5-min Rain = 0
KFVS 131655Z 21008KT 21/02 A3001 RMK A01 T02080016  RH  028%=      5-min Rain = 0
KFVS 131700Z 21008KT 21/02 A3001 RMK A01 T02090017  RH  028%=      5-min Rain = 0
KFVS 131705Z 20008KT 22/02 A3001 RMK A01 T02150019  RH  028%=      5-min Rain = 0
KFVS 131710Z 21007KT 22/02 A30 RMK A01 T02170017  RH  027%=      5-min Rain = 0
KFVS 131715Z 20007KT 22/02 A30 RMK A01 T02200018  RH  027%=      5-min Rain = 0
KFVS 131720Z 21008KT 22/02 A30 RMK A01 T02180017  RH  027%=      5-min Rain = 0
KFVS 131725Z 23007KT 22/02 A30 RMK A01 T02220018  RH  027%=      5-min Rain = 0
KFVS 131730Z 20008KT 23/02 A30 RMK A01 T02280020  RH  026%=      5-min Rain = 0
KFVS 131735Z 19009KT 23/02 A30 RMK A01 T02300020  RH  025%=      5-min Rain = 0
KFVS 131740Z 20006KT 23/02 A30 RMK A01 T02320020  RH  025%=      5-min Rain = 0
KFVS 131745Z 22007KT 24/02 A2999 RMK A01 T02360022  RH  025%=      5-min Rain = 0
KFVS 131750Z 22007G12KT 24/02 A2999 RMK A01 T02400022  RH  024%=      5-min Rain = 0
KFVS 131755Z 24008KT 24/02 A2999 RMK A01 T02430023  RH  024%=      5-min Rain = 0
KFVS 131800Z 25007KT 24/02 A2999 RMK A01 T02430023  RH  024%=      5-min Rain = 0
KFVS 131805Z 24007KT 24/02 A2999 RMK A01 T02430024  RH  024%=      5-min Rain = 0
KFVS 131810Z 22006KT 25/02 A2999 RMK A01 T02460024  RH  024%=      5-min Rain = 0
KFVS 131815Z 25004KT 25/03 A2999 RMK A01 T02480025  RH  024%=      5-min Rain = 0
KFVS 131820Z 22005G10KT 25/03 A2998 RMK A01 T02500026  RH  024%=      5-min Rain = 0
KFVS 131825Z 22006KT 25/03 A2998 RMK A01 T02530026  RH  023%=      5-min Rain = 0
KFVS 131830Z 24006KT 26/03 A2998 RMK A01 T02570027  RH  023%=      5-min Rain = 0
KFVS 131835Z 24005KT 26/03 A2998 RMK A01 T02550027  RH  023%=      5-min Rain = 0
KFVS 131840Z 23006G11KT 26/03 A2998 RMK A01 T02620028  RH  022%=      5-min Rain = 0
KFVS 131845Z 25005KT 26/03 A2997 RMK A01 T02600027  RH  023%=      5-min Rain = 0
KFVS 131850Z 19007KT 27/03 A2997 RMK A01 T02650029  RH  022%=      5-min Rain = 0
KFVS 131855Z 20007KT 27/03 A2997 RMK A01 T02690028  RH  021%=      5-min Rain = 0
KFVS 131900Z 22005KT 27/03 A2996 RMK A01 T02710030  RH  021%=      5-min Rain = 0
KFVS 131905Z 22005KT 27/03 A2996 RMK A01 T02710028  RH  021%=      5-min Rain = 0
KFVS 131910Z 22005KT 27/03 A2996 RMK A01 T02700029  RH  021%=      5-min Rain = 0
KFVS 131915Z 21007KT 27/03 A2995 RMK A01 T02740029  RH  021%=      5-min Rain = 0
KFVS 131920Z 20008KT 28/03 A2995 RMK A01 T02780031  RH  021%=      5-min Rain = 0
KFVS 131925Z 23005G10KT 28/03 A2995 RMK A01 T02790028  RH  020%=      5-min Rain = 0
KFVS 131930Z 20007G12KT 28/03 A2995 RMK A01 T02800029  RH  020%=      5-min Rain = 0
KFVS 131935Z 20006G13KT 28/03 A2994 RMK A01 T02800029  RH  020%=      5-min Rain = 0
KFVS 131940Z 23008KT 28/03 A2994 RMK A01 T02820029  RH  020%=      5-min Rain = 0
KFVS 131945Z 23004KT 28/03 A2994 RMK A01 T02820028  RH  020%=      5-min Rain = 0
KFVS 131950Z 20006G16KT 29/03 A2994 RMK A01 T02860030  RH  020%=      5-min Rain = 0
KFVS 131955Z 26008G13KT 29/03 A2994 RMK A01 T02870029  RH  019%=      5-min Rain = 0
KFVS 132000Z 24007G12KT 29/03 A2994 RMK A01 T02860029  RH  020%=      5-min Rain = 0
KFVS 132005Z 25005G10KT 29/03 A2993 RMK A01 T02870029  RH  019%=      5-min Rain = 0
KFVS 132010Z 18005KT 29/03 A2993 RMK A01 T02860028  RH  019%=      5-min Rain = 0
KFVS 132015Z 24006KT 29/03 A2993 RMK A01 T02890029  RH  019%=      5-min Rain = 0
KFVS 132020Z 24003KT 29/03 A2993 RMK A01 T02880027  RH  019%=      5-min Rain = 0
KFVS 132025Z 25008KT 29/03 A2993 RMK A01 T02930028  RH  019%=      5-min Rain = 0
KFVS 132030Z 24004G10KT 29/03 A2992 RMK A01 T02900026  RH  019%=      5-min Rain = 0
KFVS 132035Z 21005G11KT 29/03 A2992 RMK A01 T02920028  RH  019%=      5-min Rain = 0
KFVS 132040Z 21004G9KT 29/03 A2992 RMK A01 T02920029  RH  019%=      5-min Rain = 0
KFVS 132045Z 23005KT 30/03 A2992 RMK A01 T02970031  RH  019%=      5-min Rain = 0
KFVS 132050Z 23007KT 30/03 A2992 RMK A01 T02980029  RH  018%=      5-min Rain = 0
KFVS 132055Z 21006G11KT 29/03 A2992 RMK A01 T02930029  RH  019%=      5-min Rain = 0
KFVS 132100Z 21008KT 30/03 A2992 RMK A01 T02960029  RH  018%=      5-min Rain = 0
KFVS 132105Z 23007G14KT 30/03 A2992 RMK A01 T02960029  RH  018%=      5-min Rain = 0
KFVS 132110Z 20005KT 30/03 A2992 RMK A01 T02950029  RH  019%=      5-min Rain = 0
KFVS 132115Z 22006G12KT 30/03 A2992 RMK A01 T02970030  RH  018%=      5-min Rain = 0
KFVS 132120Z 21009KT 30/03 A2992 RMK A01 T02970029  RH  018%=      5-min Rain = 0
KFVS 132125Z 21006KT 30/03 A2992 RMK A01 T02960029  RH  018%=      5-min Rain = 0
KFVS 132130Z 22010G15KT 30/03 A2992 RMK A01 T02990027  RH  018%=      5-min Rain = 0
KFVS 132135Z 22008G13KT 30/03 A2992 RMK A01 T02970027  RH  018%=      5-min Rain = 0
KFVS 132140Z 24007G13KT 30/03 A2992 RMK A01 T02970025  RH  018%=      5-min Rain = 0
KFVS 132145Z 24010G16KT 30/03 A2991 RMK A01 T03000027  RH  018%=      5-min Rain = 0
KFVS 132150Z 23010KT 30/03 A2992 RMK A01 T02980025  RH  018%=      5-min Rain = 0
KFVS 132155Z 23006G12KT 30/03 A2991 RMK A01 T02970026  RH  018%=      5-min Rain = 0
KFVS 132200Z 21010G15KT 30/03 A2991 RMK A01 T02990029  RH  018%=      5-min Rain = 0
KFVS 132205Z 18008KT 30/03 A2991 RMK A01 T02960026  RH  018%=      5-min Rain = 0
KFVS 132210Z 17006KT 30/03 A2992 RMK A01 T02970025  RH  018%=      5-min Rain = 0
KFVS 132215Z 20007KT 30/03 A2991 RMK A01 T02960027  RH  018%=      5-min Rain = 0
KFVS 132220Z 22008G13KT 30/03 A2991 RMK A01 T02960027  RH  018%=      5-min Rain = 0
KFVS 132225Z 25007KT 30/02 A2992 RMK A01 T02950024  RH  018%=      5-min Rain = 0
KFVS 132230Z 20007KT 30/03 A2991 RMK A01 T02950026  RH  018%=      5-min Rain = 0
KFVS 132235Z 20009KT 30/03 A2992 RMK A01 T02950026  RH  018%=      5-min Rain = 0
KFVS 132240Z 21009KT 29/03 A2992 RMK A01 T02930027  RH  019%=      5-min Rain = 0
KFVS 132245Z 18006KT 29/03 A2992 RMK A01 T02920027  RH  019%=      5-min Rain = 0
KFVS 132250Z 18007KT 29/03 A2992 RMK A01 T02920027  RH  019%=      5-min Rain = 0
KFVS 132255Z 21008KT 29/03 A2992 RMK A01 T02930029  RH  019%=      5-min Rain = 0
KFVS 132300Z 20008KT 29/03 A2992 RMK A01 T02930029  RH  019%=      5-min Rain = 0
KFVS 132305Z 20009KT 29/03 A2992 RMK A01 T02920030  RH  019%=      5-min Rain = 0
KFVS 132310Z 21009KT 29/03 A2992 RMK A01 T02900028  RH  019%=      5-min Rain = 0
KFVS 132315Z 20008KT 29/03 A2992 RMK A01 T02880027  RH  019%=      5-min Rain = 0
KFVS 132320Z 20008KT 29/03 A2992 RMK A01 T02870027  RH  019%=      5-min Rain = 0
KFVS 132325Z 20008KT 29/03 A2992 RMK A01 T02860028  RH  019%=      5-min Rain = 0
KFVS 132330Z 20007KT 28/03 A2993 RMK A01 T02830027  RH  020%=      5-min Rain = 0
KFVS 132335Z 20007KT 28/03 A2993 RMK A01 T02820027  RH  020%=      5-min Rain = 0
KFVS 132340Z 19007KT 28/03 A2993 RMK A01 T02790026  RH  020%=      5-min Rain = 0
KFVS 132345Z 19007KT 28/03 A2993 RMK A01 T02750025  RH  020%=      5-min Rain = 0
KFVS 132350Z 19006KT 27/02 A2993 RMK A01 T02700024  RH  021%=      5-min Rain = 0
KFVS 132355Z 18006KT 26/02 A2993 RMK A01 T02640024  RH  021%=      5-min Rain = 0
KFVS 140000Z 18005KT 26/02 A2993 RMK A01 T02570023  RH  022%=      5-min Rain = 0
KFVS 140005Z 19007KT 25/02 A2993 RMK A01 T02520023  RH  023%=      5-min Rain = 0
KFVS 140010Z 19007KT 25/02 A2993 RMK A01 T02500023  RH  023%=      5-min Rain = 0
KFVS 140015Z 19006KT 25/02 A2993 RMK A01 T02460022  RH  024%=      5-min Rain = 0
KFVS 140020Z 19006KT 24/02 A2993 RMK A01 T02400021  RH  024%=      5-min Rain = 0
KFVS 140025Z 19007KT 24/02 A2993 RMK A01 T02380021  RH  025%=      5-min Rain = 0
KFVS 140030Z 18008KT 24/02 A2993 RMK A01 T02350021  RH  025%=      5-min Rain = 0
KFVS 140035Z 18007KT 24/02 A2993 RMK A01 T02380022  RH  025%=      5-min Rain = 0
KFVS 140040Z 17007KT 24/02 A2993 RMK A01 T02360022  RH  025%=      5-min Rain = 0
KFVS 140045Z 18008KT 23/02 A2994 RMK A01 T02330022  RH  025%=      5-min Rain = 0
KFVS 140050Z 18007KT 23/02 A2994 RMK A01 T02320021  RH  025%=      5-min Rain = 0
KFVS 140055Z 17008KT 23/02 A2994 RMK A01 T02310022  RH  026%=      5-min Rain = 0
KFVS 140100Z 17007KT 23/03 A2994 RMK A01 T02310025  RH  026%=      5-min Rain = 0
KFVS 140105Z 17007KT 23/03 A2994 RMK A01 T02290026  RH  027%=      5-min Rain = 0
KFVS 140110Z 17007KT 22/03 A2994 RMK A01 T02240027  RH  028%=      5-min Rain = 0
KFVS 140115Z 17007KT 23/03 A2994 RMK A01 T02250030  RH  028%=      5-min Rain = 0
KFVS 140120Z 17007KT 23/03 A2994 RMK A01 T02320033  RH  028%=      5-min Rain = 0
KFVS 140125Z 17007KT 24/04 A2994 RMK A01 T02350035  RH  028%=      5-min Rain = 0
KFVS 140130Z 17007KT 23/04 A2994 RMK A01 T02340035  RH  028%=      5-min Rain = 0
KFVS 140135Z 17008KT 24/04 A2994 RMK A01 T02350036  RH  028%=      5-min Rain = 0
KFVS 140140Z 17008KT 24/04 A2994 RMK A01 T02370036  RH  027%=      5-min Rain = 0
KFVS 140145Z 18008KT 24/04 A2994 RMK A01 T02380036  RH  027%=      5-min Rain = 0
KFVS 140150Z 18008KT 24/04 A2995 RMK A01 T02370036  RH  027%=      5-min Rain = 0
KFVS 140155Z 18007KT 24/04 A2995 RMK A01 T02380035  RH  027%=      5-min Rain = 0
KFVS 140200Z 18007KT 24/04 A2995 RMK A01 T02350035  RH  028%=      5-min Rain = 0
KFVS 140205Z 18007KT 23/04 A2995 RMK A01 T02340035  RH  028%=      5-min Rain = 0
KFVS 140210Z 18009KT 24/04 A2995 RMK A01 T02350036  RH  028%=      5-min Rain = 0
KFVS 140215Z 17011KT 24/04 A2995 RMK A01 T02410037  RH  027%=      5-min Rain = 0
KFVS 140220Z 18012KT 24/04 A2995 RMK A01 T02420040  RH  027%=      5-min Rain = 0
KFVS 140225Z 18011KT 24/04 A2996 RMK A01 T02400041  RH  028%=      5-min Rain = 0
KFVS 140230Z 18011KT 24/04 A2996 RMK A01 T02360043  RH  029%=      5-min Rain = 0
KFVS 140235Z 18012KT 23/04 A2996 RMK A01 T02330044  RH  030%=      5-min Rain = 0
KFVS 140240Z 18011G16KT 23/04 A2996 RMK A01 T02300044  RH  030%=      5-min Rain = 0
KFVS 140245Z 18011KT 23/04 A2996 RMK A01 T02280044  RH  031%=      5-min Rain = 0
KFVS 140250Z 18010G15KT 23/04 A2996 RMK A01 T02260044  RH  031%=      5-min Rain = 0
KFVS 140255Z 19011G16KT 23/05 A2996 RMK A01 T02250045  RH  031%=      5-min Rain = 0
KFVS 140300Z 19011KT 22/05 A2996 RMK A01 T02240045  RH  032%=      5-min Rain = 0
KFVS 140305Z 19010KT 22/05 A2996 RMK A01 T02210045  RH  032%=      5-min Rain = 0
KFVS 140310Z 18010KT 22/05 A2997 RMK A01 T02200046  RH  033%=      5-min Rain = 0
KFVS 140315Z 17011KT 22/05 A2997 RMK A01 T02200047  RH  033%=      5-min Rain = 0
KFVS 140320Z 18011KT 22/05 A2997 RMK A01 T02230048  RH  033%=      5-min Rain = 0
KFVS 140325Z 18011KT 22/05 A2997 RMK A01 T02230048  RH  033%=      5-min Rain = 0
KFVS 140330Z 18011KT 22/05 A2997 RMK A01 T02240048  RH  032%=      5-min Rain = 0
KFVS 140335Z 18011KT 22/05 A2997 RMK A01 T02210048  RH  033%=      5-min Rain = 0
KFVS 140340Z 19010KT 22/05 A2997 RMK A01 T02220048  RH  033%=      5-min Rain = 0
KFVS 140345Z 19010KT 22/05 A2998 RMK A01 T02210048  RH  033%=      5-min Rain = 0
KFVS 140350Z 18009KT 22/05 A2998 RMK A01 T02190048  RH  034%=      5-min Rain = 0
KFVS 140355Z 18009KT 22/05 A2998 RMK A01 T02180048  RH  034%=      5-min Rain = 0
KFVS 140400Z 18010KT 22/05 A2998 RMK A01 T02180048  RH  034%=      5-min Rain = 0
KFVS 140405Z 18010KT 22/05 A2998 RMK A01 T02180048  RH  034%=      5-min Rain = 0
KFVS 140410Z 18009KT 22/05 A2998 RMK A01 T02150048  RH  034%=      5-min Rain = 0
KFVS 140415Z 18010KT 21/05 A2998 RMK A01 T02120048  RH  035%=      5-min Rain = 0
KFVS 140420Z 19009KT 21/05 A2998 RMK A01 T02130048  RH  035%=      5-min Rain = 0
KFVS 140425Z 19009KT 21/05 A2998 RMK A01 T02100048  RH  035%=      5-min Rain = 0
KFVS 140430Z 18008KT 21/05 A2998 RMK A01 T02090048  RH  035%=      5-min Rain = 0
KFVS 140435Z 18008KT 21/05 A2998 RMK A01 T02070048  RH  036%=      5-min Rain = 0
KFVS 140440Z 19007KT 21/05 A2998 RMK A01 T02060048  RH  036%=      5-min Rain = 0
KFVS 140445Z 18006KT 20/05 A2998 RMK A01 T02040048  RH  037%=      5-min Rain = 0
KFVS 140450Z 19007KT 20/05 A2998 RMK A01 T02030048  RH  037%=      5-min Rain = 0
KFVS 140455Z 19009KT 21/05 A2998 RMK A01 T02050049  RH  037%=      5-min Rain = 0

Page generated in 0.0256 seconds.